createdAt,value
2018-08-22T00:00:04.092Z,100474.00
2018-08-22T00:02:31.750Z,100470.00
2018-08-22T00:04:59.348Z,100470.00
2018-08-22T00:07:26.939Z,100467.00
2018-08-22T00:09:54.670Z,100471.00
2018-08-22T00:12:22.234Z,100470.00
2018-08-22T00:14:49.863Z,100468.00
2018-08-22T00:17:17.490Z,100471.00
2018-08-22T00:19:45.039Z,100469.00
2018-08-22T00:22:12.620Z,100472.00
2018-08-22T00:24:40.309Z,100464.00
2018-08-22T00:27:07.988Z,100465.00
2018-08-22T00:29:35.552Z,100465.00
2018-08-22T00:32:03.428Z,100466.00
2018-08-22T00:34:31.072Z,100465.00
2018-08-22T00:36:58.595Z,100458.00
2018-08-22T00:39:26.271Z,100457.00
2018-08-22T00:41:54.319Z,100457.00
2018-08-22T00:44:21.904Z,100459.00
2018-08-22T00:46:49.132Z,100457.00
2018-08-22T00:49:17.805Z,100456.00
2018-08-22T00:51:45.437Z,100449.00
2018-08-22T00:54:12.959Z,100448.00
2018-08-22T00:56:40.724Z,100449.00
2018-08-22T00:59:08.284Z,100450.00
2018-08-22T01:01:35.871Z,100452.00
2018-08-22T01:04:03.796Z,100456.00
2018-08-22T01:06:31.915Z,100452.00
2018-08-22T01:08:59.425Z,100454.00
2018-08-22T01:11:27.187Z,100451.00
2018-08-22T01:13:55.455Z,100449.00
2018-08-22T01:16:23.025Z,100447.00
2018-08-22T01:18:50.599Z,100443.00
2018-08-22T01:21:18.703Z,100444.00
2018-08-22T01:23:46.300Z,100446.00
2018-08-22T01:26:13.839Z,100448.00
2018-08-22T01:28:41.706Z,100446.00
2018-08-22T01:31:09.256Z,100444.00
2018-08-22T01:33:36.806Z,100443.00
2018-08-22T01:36:04.683Z,100440.00
2018-08-22T01:38:32.233Z,100439.00
2018-08-22T01:41:00.022Z,100442.00
2018-08-22T01:43:27.563Z,100444.00
2018-08-22T01:45:54.992Z,100445.00
2018-08-22T01:48:22.659Z,100445.00
2018-08-22T01:50:50.222Z,100442.00
2018-08-22T01:53:18.003Z,100444.00
2018-08-22T01:55:45.859Z,100440.00
2018-08-22T01:58:13.496Z,100432.00
2018-08-22T02:00:41.290Z,100431.00
2018-08-22T02:03:08.992Z,100430.00
2018-08-22T02:05:36.542Z,100427.00
2018-08-22T02:08:04.511Z,100428.00
2018-08-22T02:10:32.000Z,100430.00
2018-08-22T02:12:59.567Z,100434.00
2018-08-22T02:15:27.598Z,100430.00
2018-08-22T02:17:55.140Z,100421.00
2018-08-22T02:20:22.736Z,100422.00
2018-08-22T02:22:50.487Z,100422.00
2018-08-22T02:25:18.121Z,100416.00
2018-08-22T02:27:45.685Z,100415.00
2018-08-22T02:30:13.299Z,100414.00
2018-08-22T02:32:40.836Z,100417.00
2018-08-22T02:35:08.361Z,100414.00
2018-08-22T02:37:36.045Z,100418.00
2018-08-22T02:40:03.759Z,100418.00
2018-08-22T02:42:31.364Z,100416.00
2018-08-22T02:44:59.200Z,100418.00
2018-08-22T02:47:26.785Z,100417.00
2018-08-22T02:49:54.405Z,100408.00
2018-08-22T02:52:22.415Z,100412.00
2018-08-22T02:54:49.980Z,100413.00
2018-08-22T02:57:17.564Z,100414.00
2018-08-22T02:59:45.377Z,100409.00
2018-08-22T03:02:12.939Z,100409.00
2018-08-22T03:04:40.517Z,100414.00
2018-08-22T03:07:08.320Z,100409.00
2018-08-22T03:09:35.903Z,100407.00
2018-08-22T03:12:03.408Z,100413.00
2018-08-22T03:14:31.168Z,100413.00
2018-08-22T03:16:58.724Z,100412.00
2018-08-22T03:19:26.257Z,100411.00
2018-08-22T03:21:53.931Z,100415.00
2018-08-22T03:24:21.508Z,100417.00
2018-08-22T03:26:50.116Z,100412.00
2018-08-22T03:29:17.747Z,100411.00
2018-08-22T03:31:45.488Z,100416.00
2018-08-22T03:34:13.088Z,100423.00
2018-08-22T03:36:41.081Z,100417.00
2018-08-22T03:39:09.111Z,100421.00
2018-08-22T03:41:36.667Z,100420.00
2018-08-22T03:44:04.413Z,100416.00
2018-08-22T03:46:31.969Z,100416.00
2018-08-22T03:48:59.528Z,100420.00
2018-08-22T03:51:27.300Z,100420.00
2018-08-22T03:53:54.925Z,100419.00
2018-08-22T03:56:22.455Z,100415.00
2018-08-22T03:58:50.348Z,100413.00
2018-08-22T04:01:17.879Z,100417.00
2018-08-22T04:03:45.395Z,100413.00
2018-08-22T04:06:12.976Z,100414.00
2018-08-22T04:08:40.540Z,100415.00
2018-08-22T04:11:08.095Z,100415.00
2018-08-22T04:13:36.519Z,100412.00
2018-08-22T04:16:04.178Z,100416.00
2018-08-22T04:18:31.843Z,100414.00
2018-08-22T04:20:59.560Z,100421.00
2018-08-22T04:23:27.133Z,100416.00
2018-08-22T04:25:54.656Z,100414.00
2018-08-22T04:28:22.339Z,100417.00
2018-08-22T04:30:49.887Z,100418.00
2018-08-22T04:33:17.640Z,100416.00
2018-08-22T04:35:45.199Z,100412.00
2018-08-22T04:38:12.765Z,100415.00
2018-08-22T04:40:40.578Z,100415.00
2018-08-22T04:43:08.234Z,100415.00
2018-08-22T04:45:35.803Z,100414.00
2018-08-22T04:48:03.579Z,100408.00
2018-08-22T04:50:31.136Z,100406.00
2018-08-22T04:52:58.955Z,100411.00
2018-08-22T04:55:26.913Z,100410.00
2018-08-22T04:57:54.578Z,100411.00
2018-08-22T05:00:22.151Z,100408.00
2018-08-22T05:02:49.831Z,100410.00
2018-08-22T05:05:17.368Z,100398.00
2018-08-22T05:07:44.908Z,100399.00
2018-08-22T05:10:12.855Z,100402.00
2018-08-22T05:12:40.481Z,100398.00
2018-08-22T05:15:08.021Z,100398.00
2018-08-22T05:17:35.911Z,100402.00
2018-08-22T05:20:03.489Z,100405.00
2018-08-22T05:22:31.067Z,100401.00
2018-08-22T05:24:58.905Z,100399.00
2018-08-22T05:27:26.452Z,100402.00
2018-08-22T05:29:54.027Z,100398.00
2018-08-22T05:32:21.557Z,100395.00
2018-08-22T05:34:56.755Z,100401.00
2018-08-22T05:37:24.578Z,100402.00
2018-08-22T05:39:52.179Z,100394.00
2018-08-22T05:42:20.074Z,100401.00
2018-08-22T05:44:51.312Z,100392.00
2018-08-22T05:47:18.842Z,100397.00
2018-08-22T05:49:46.500Z,100396.00
2018-08-22T05:52:23.386Z,100393.00
2018-08-22T05:54:51.019Z,100392.00
2018-08-22T05:57:18.584Z,100393.00
2018-08-22T05:59:46.078Z,100393.00
2018-08-22T06:02:13.759Z,100388.00
2018-08-22T06:04:41.308Z,100388.00
2018-08-22T06:07:09.039Z,100389.00
2018-08-22T06:09:36.868Z,100387.00
2018-08-22T06:12:04.415Z,100386.00
2018-08-22T06:14:32.058Z,100388.00
2018-08-22T06:16:59.759Z,100390.00
2018-08-22T06:19:27.337Z,100385.00
2018-08-22T06:21:54.894Z,100387.00
2018-08-22T06:24:22.813Z,100389.00
2018-08-22T06:26:50.354Z,100387.00
2018-08-22T06:29:18.097Z,100384.00
2018-08-22T06:31:45.656Z,100374.00
2018-08-22T06:34:13.227Z,100377.00
2018-08-22T06:36:41.045Z,100379.00
2018-08-22T06:39:09.561Z,100379.00
2018-08-22T06:41:37.240Z,100379.00
2018-08-22T06:44:05.283Z,100375.00
2018-08-22T06:46:32.809Z,100370.00
2018-08-22T06:49:00.368Z,100373.00
2018-08-22T06:51:28.112Z,100371.00
2018-08-22T06:53:55.651Z,100368.00
2018-08-22T06:56:23.200Z,100362.00
2018-08-22T06:58:51.012Z,100356.00
2018-08-22T07:01:18.559Z,100357.00
2018-08-22T07:03:46.108Z,100351.00
2018-08-22T07:06:14.169Z,100349.00
2018-08-22T07:08:41.724Z,100341.00
2018-08-22T07:11:09.264Z,100349.00
2018-08-22T07:13:37.047Z,100345.00
2018-08-22T07:16:04.589Z,100347.00
2018-08-22T07:18:32.205Z,100346.00
2018-08-22T07:21:00.456Z,100347.00
2018-08-22T07:23:28.411Z,100349.00
2018-08-22T07:25:55.990Z,100340.00
2018-08-22T07:28:23.756Z,100342.00
2018-08-22T07:30:51.394Z,100343.00
2018-08-22T07:33:19.308Z,100344.00
2018-08-22T07:35:46.986Z,100341.00
2018-08-22T07:38:14.480Z,100338.00
2018-08-22T07:40:42.036Z,100333.00
2018-08-22T07:43:09.621Z,100335.00
2018-08-22T07:45:37.141Z,100336.00
2018-08-22T07:48:05.049Z,100334.00
2018-08-22T07:50:33.119Z,100334.00
2018-08-22T07:53:04.798Z,100334.00
2018-08-22T07:55:37.182Z,100330.00
2018-08-22T07:58:04.978Z,100329.00
2018-08-22T08:00:32.600Z,100321.00
2018-08-22T08:03:00.473Z,100323.00
2018-08-22T08:05:28.056Z,100324.00
2018-08-22T08:07:55.540Z,100322.00
2018-08-22T08:10:28.963Z,100323.00
2018-08-22T08:12:56.488Z,100321.00
2018-08-22T08:15:24.048Z,100322.00
2018-08-22T08:17:51.828Z,100319.00
2018-08-22T08:20:23.484Z,100314.00
2018-08-22T08:22:51.015Z,100309.00
2018-08-22T08:25:33.689Z,100311.00
2018-08-22T08:28:11.253Z,100302.00
2018-08-22T08:30:46.916Z,100303.00
2018-08-22T08:33:14.442Z,100295.00
2018-08-22T08:35:41.972Z,100291.00
2018-08-22T08:38:11.021Z,100294.00
2018-08-22T08:40:38.684Z,100288.00
2018-08-22T08:43:06.236Z,100287.00
2018-08-22T08:45:34.031Z,100285.00
2018-08-22T08:48:01.555Z,100282.00
2018-08-22T08:50:29.143Z,100279.00
2018-08-22T08:52:57.256Z,100276.00
2018-08-22T08:55:24.763Z,100273.00
2018-08-22T08:57:52.279Z,100268.00
2018-08-22T09:00:20.052Z,100261.00
2018-08-22T09:02:48.026Z,100262.00
2018-08-22T09:05:15.599Z,100263.00
2018-08-22T09:07:43.024Z,100264.00
2018-08-22T09:10:10.821Z,100252.00
2018-08-22T09:12:38.352Z,100251.00
2018-08-22T09:15:06.613Z,100251.00
2018-08-22T09:17:34.652Z,100254.00
2018-08-22T09:20:02.217Z,100244.00
2018-08-22T09:22:29.818Z,100246.00
2018-08-22T09:24:57.892Z,100236.00
2018-08-22T09:27:25.457Z,100236.00
2018-08-22T09:29:53.394Z,100232.00
2018-08-22T09:32:20.935Z,100226.00
2018-08-22T09:34:48.457Z,100226.00
2018-08-22T09:37:16.596Z,100216.00
2018-08-22T09:39:44.208Z,100218.00
2018-08-22T09:42:11.743Z,100222.00
2018-08-22T09:44:39.392Z,100214.00
2018-08-22T09:47:06.912Z,100206.00
2018-08-22T09:49:34.433Z,100211.00
2018-08-22T09:52:02.483Z,100211.00
2018-08-22T09:54:31.057Z,100212.00
2018-08-22T09:56:58.632Z,100214.00
2018-08-22T09:59:26.428Z,100214.00
2018-08-22T10:01:53.981Z,100209.00
2018-08-22T10:04:21.558Z,100203.00
2018-08-22T10:06:50.251Z,100205.00
2018-08-22T10:09:20.219Z,100199.00
2018-08-22T10:11:47.812Z,100200.00
2018-08-22T10:14:15.490Z,100201.00
2018-08-22T10:16:43.050Z,100198.00
2018-08-22T10:19:10.604Z,100191.00
2018-08-22T10:21:38.327Z,100188.00
2018-08-22T10:24:05.956Z,100189.00
2018-08-22T10:26:34.011Z,100181.00
2018-08-22T10:29:01.679Z,100179.00
2018-08-22T10:31:29.304Z,100172.00
2018-08-22T10:33:57.159Z,100175.00
2018-08-22T10:36:24.960Z,100172.00
2018-08-22T10:38:52.651Z,100173.00
2018-08-22T10:41:20.242Z,100174.00
2018-08-22T10:43:48.140Z,100172.00
2018-08-22T10:46:15.729Z,100163.00
2018-08-22T10:48:43.355Z,100164.00
2018-08-22T10:51:11.359Z,100160.00
2018-08-22T10:53:38.930Z,100157.00
2018-08-22T10:56:06.503Z,100161.00
2018-08-22T10:58:34.321Z,100154.00
2018-08-22T11:01:02.005Z,100149.00
2018-08-22T11:03:29.744Z,100147.00
2018-08-22T11:05:57.732Z,100146.00
2018-08-22T11:08:25.343Z,100145.00
2018-08-22T11:10:52.915Z,100140.00
2018-08-22T11:13:20.972Z,100138.00
2018-08-22T11:15:48.688Z,100136.00
2018-08-22T11:18:16.189Z,100136.00
2018-08-22T11:20:45.526Z,100132.00
2018-08-22T11:23:31.245Z,100133.00
2018-08-22T11:26:16.708Z,100128.00
2018-08-22T11:29:01.958Z,100125.00
2018-08-22T11:31:41.128Z,100125.00
2018-08-22T11:34:26.341Z,100127.00
2018-08-22T11:37:02.956Z,100121.00
2018-08-22T11:39:30.901Z,100124.00
2018-08-22T11:41:58.525Z,100121.00
2018-08-22T11:44:26.103Z,100117.00
2018-08-22T11:46:53.662Z,100112.00
2018-08-22T11:49:21.326Z,100118.00
2018-08-22T11:51:48.958Z,100114.00
2018-08-22T11:54:16.500Z,100115.00
2018-08-22T11:56:44.419Z,100119.00
2018-08-22T11:59:12.007Z,100117.00
2018-08-22T12:01:40.504Z,100115.00
2018-08-22T12:04:08.905Z,100112.00
2018-08-22T12:06:36.509Z,100110.00
2018-08-22T12:09:07.122Z,100112.00
2018-08-22T12:11:34.927Z,100116.00
2018-08-22T12:14:03.033Z,100112.00
2018-08-22T12:16:30.676Z,100114.00
2018-08-22T12:18:58.520Z,100113.00
2018-08-22T12:21:26.092Z,100105.00
2018-08-22T12:23:53.968Z,100108.00
2018-08-22T12:26:21.529Z,100107.00
2018-08-22T12:28:49.042Z,100105.00
2018-08-22T12:31:17.074Z,100096.00
2018-08-22T12:33:44.648Z,100090.00
2018-08-22T12:36:12.368Z,100087.00
2018-08-22T12:38:40.278Z,100091.00
2018-08-22T12:41:08.053Z,100090.00
2018-08-22T12:43:35.592Z,100086.00
2018-08-22T12:46:03.481Z,100078.00
2018-08-22T12:48:31.040Z,100073.00
2018-08-22T12:50:58.678Z,100071.00
2018-08-22T12:53:26.726Z,100071.00
2018-08-22T12:55:54.220Z,100071.00
2018-08-22T12:58:22.182Z,100071.00
2018-08-22T13:00:49.775Z,100065.00
2018-08-22T13:03:17.304Z,100058.00
2018-08-22T13:05:45.016Z,100056.00
2018-08-22T13:08:12.536Z,100051.00
2018-08-22T13:10:40.096Z,100056.00
2018-08-22T13:13:07.826Z,100048.00
2018-08-22T13:15:36.191Z,100054.00
2018-08-22T13:18:03.999Z,100050.00
2018-08-22T13:20:31.543Z,100049.00
2018-08-22T13:22:59.405Z,100044.00
2018-08-22T13:25:27.000Z,100040.00
2018-08-22T13:27:54.614Z,100046.00
2018-08-22T13:30:22.447Z,100042.00
2018-08-22T13:32:50.044Z,100041.00
2018-08-22T13:35:17.612Z,100045.00
2018-08-22T13:37:45.421Z,100042.00
2018-08-22T13:40:13.016Z,100036.00
2018-08-22T13:42:40.802Z,100035.00
2018-08-22T13:45:08.665Z,100034.00
2018-08-22T13:47:36.209Z,100029.00
2018-08-22T13:50:04.105Z,100023.00
2018-08-22T13:52:31.659Z,100027.00
2018-08-22T13:54:59.332Z,100020.00
2018-08-22T13:57:26.915Z,100016.00
2018-08-22T13:59:54.497Z,100017.00
2018-08-22T14:02:22.091Z,100021.00
2018-08-22T14:04:49.712Z,100016.00
2018-08-22T14:07:17.315Z,100014.00
2018-08-22T14:09:44.942Z,100012.00
2018-08-22T14:12:12.642Z,100011.00
2018-08-22T14:14:40.278Z,100013.00
2018-08-22T14:17:09.028Z,100012.00
2018-08-22T14:19:36.884Z,100015.00
2018-08-22T14:22:04.552Z,100014.00
2018-08-22T14:24:32.454Z,100016.00
2018-08-22T14:26:59.995Z,100014.00
2018-08-22T14:29:27.583Z,100009.00
2018-08-22T14:31:55.289Z,100006.00
2018-08-22T14:34:22.929Z,100002.00
2018-08-22T14:36:50.481Z,100000.00
2018-08-22T14:39:18.411Z,100004.00
2018-08-22T14:41:46.212Z,100000.00
2018-08-22T14:44:13.775Z,99998.00
2018-08-22T14:46:41.344Z,99998.00
2018-08-22T14:49:09.024Z,99996.00
2018-08-22T14:51:36.561Z,99996.00
2018-08-22T14:54:04.076Z,99994.00
2018-08-22T14:56:31.745Z,99990.00
2018-08-22T14:58:59.272Z,99987.00
2018-08-22T15:01:26.844Z,99986.00
2018-08-22T15:03:54.688Z,99986.00
2018-08-22T15:06:22.325Z,99989.00
2018-08-22T15:08:55.671Z,99984.00
2018-08-22T15:11:23.224Z,99984.00
2018-08-22T15:13:50.792Z,99979.00
2018-08-22T15:16:18.413Z,99980.00
2018-08-22T15:18:45.704Z,99976.00
2018-08-22T15:21:13.267Z,99972.00
2018-08-22T15:23:41.271Z,99972.00
2018-08-22T15:26:08.829Z,99970.00
2018-08-22T15:28:36.404Z,99966.00
2018-08-22T15:31:04.268Z,99963.00
2018-08-22T15:33:31.827Z,99963.00
2018-08-22T15:35:59.412Z,99961.00
2018-08-22T15:38:27.428Z,99952.00
2018-08-22T15:40:55.082Z,99955.00
2018-08-22T15:43:22.612Z,99948.00
2018-08-22T15:45:50.452Z,99944.00
2018-08-22T15:48:18.057Z,99942.00
2018-08-22T15:50:48.933Z,99944.00
2018-08-22T15:53:16.839Z,99938.00
2018-08-22T15:55:44.288Z,99937.00
2018-08-22T15:58:12.281Z,99934.00
2018-08-22T16:00:44.703Z,99935.00
2018-08-22T16:03:12.559Z,99930.00
2018-08-22T16:05:41.158Z,99926.00
2018-08-22T16:08:09.669Z,99922.00
2018-08-22T16:10:37.348Z,99924.00
2018-08-22T16:13:08.169Z,99920.00
2018-08-22T16:15:36.736Z,99914.00
2018-08-22T16:18:07.962Z,99912.00
2018-08-22T16:20:44.431Z,99909.00
2018-08-22T16:23:12.062Z,99903.00
2018-08-22T16:25:42.389Z,99903.00
2018-08-22T16:28:10.393Z,99901.00
2018-08-22T16:30:37.988Z,99900.00
2018-08-22T16:33:05.524Z,99897.00
2018-08-22T16:35:33.278Z,99897.00
2018-08-22T16:38:02.768Z,99894.00
2018-08-22T16:40:35.158Z,99895.00
2018-08-22T16:43:03.016Z,99898.00
2018-08-22T16:45:31.292Z,99901.00
2018-08-22T16:47:59.231Z,99897.00
2018-08-22T16:50:26.768Z,99898.00
2018-08-22T16:52:54.328Z,99896.00
2018-08-22T16:55:23.328Z,99897.00
2018-08-22T16:57:51.448Z,99895.00
2018-08-22T17:00:35.999Z,99899.00
2018-08-22T17:03:05.191Z,99900.00
2018-08-22T17:05:33.069Z,99905.00
2018-08-22T17:08:00.876Z,99898.00
2018-08-22T17:11:02.876Z,99899.00
2018-08-22T17:13:49.542Z,99893.00
2018-08-22T17:16:17.372Z,99892.00
2018-08-22T17:18:45.654Z,99899.00
2018-08-22T17:21:13.205Z,99898.00
2018-08-22T17:23:41.331Z,99897.00
2018-08-22T17:26:13.977Z,99892.00
2018-08-22T17:28:44.393Z,99890.00
2018-08-22T17:31:12.576Z,99892.00
2018-08-22T17:33:43.580Z,99891.00
2018-08-22T17:36:11.889Z,99890.00
2018-08-22T17:38:43.176Z,99894.00
2018-08-22T17:41:11.021Z,99894.00
2018-08-22T17:44:13.204Z,99894.00
2018-08-22T17:46:42.767Z,99899.00
2018-08-22T17:49:10.366Z,99897.00
2018-08-22T17:52:11.347Z,99895.00
2018-08-22T17:54:38.926Z,99895.00
2018-08-22T17:57:21.606Z,99897.00
2018-08-22T17:59:49.178Z,99899.00
2018-08-22T18:02:16.724Z,99896.00
2018-08-22T18:04:59.000Z,99909.00
2018-08-22T18:07:26.580Z,99908.00
2018-08-22T18:09:54.134Z,99910.00
2018-08-22T18:12:25.838Z,99909.00
2018-08-22T18:14:57.506Z,99915.00
2018-08-22T18:17:25.097Z,99916.00
2018-08-22T18:19:52.932Z,99910.00
2018-08-22T18:22:20.506Z,99928.00
2018-08-22T18:24:54.012Z,99925.00
2018-08-22T18:27:25.634Z,99924.00
2018-08-22T18:29:53.166Z,99927.00
2018-08-22T18:32:20.849Z,99928.00
2018-08-22T18:35:03.656Z,99930.00
2018-08-22T18:37:32.171Z,99934.00
2018-08-22T18:40:17.988Z,99937.00
2018-08-22T18:42:50.804Z,99939.00
2018-08-22T18:45:19.032Z,99941.00
2018-08-22T18:47:46.731Z,99942.00
2018-08-22T18:50:14.660Z,99948.00
2018-08-22T18:52:46.295Z,99955.00
2018-08-22T18:55:13.855Z,99954.00
2018-08-22T18:57:42.231Z,99952.00
2018-08-22T19:00:09.798Z,99950.00
2018-08-22T19:02:37.719Z,99948.00
2018-08-22T19:05:25.964Z,99950.00
2018-08-22T19:08:01.256Z,99956.00
2018-08-22T19:10:30.219Z,99954.00
2018-08-22T19:13:04.200Z,99955.00
2018-08-22T19:15:31.868Z,99959.00
2018-08-22T19:17:59.813Z,99956.00
2018-08-22T19:20:27.548Z,99955.00
2018-08-22T19:22:55.279Z,99957.00
2018-08-22T19:25:22.945Z,99953.00
2018-08-22T19:27:50.907Z,99955.00
2018-08-22T19:30:18.483Z,99955.00
2018-08-22T19:32:47.515Z,99954.00
2018-08-22T19:35:15.089Z,99952.00
2018-08-22T19:37:47.161Z,99953.00
2018-08-22T19:40:14.711Z,99955.00
2018-08-22T19:42:42.290Z,99952.00
2018-08-22T19:45:10.337Z,99952.00
2018-08-22T19:47:39.107Z,99959.00
2018-08-22T19:50:07.348Z,99957.00
2018-08-22T19:52:35.023Z,99955.00
2018-08-22T19:55:04.762Z,99954.00
2018-08-22T19:57:35.558Z,99952.00
2018-08-22T20:00:05.185Z,99953.00
2018-08-22T20:02:33.655Z,99952.00
2018-08-22T20:05:01.692Z,99953.00
2018-08-22T20:07:29.286Z,99951.00
2018-08-22T20:09:57.012Z,99954.00
2018-08-22T20:12:40.511Z,99956.00
2018-08-22T20:15:08.307Z,99957.00
2018-08-22T20:17:35.981Z,99953.00
2018-08-22T20:20:04.123Z,99957.00
2018-08-22T20:22:37.641Z,99954.00
2018-08-22T20:25:06.950Z,99952.00
2018-08-22T20:27:34.789Z,99953.00
2018-08-22T20:30:08.238Z,99952.00
2018-08-22T20:32:35.874Z,99949.00
2018-08-22T20:35:03.719Z,99951.00
2018-08-22T20:37:32.159Z,99955.00
2018-08-22T20:40:04.901Z,99952.00
2018-08-22T20:42:32.834Z,99953.00
2018-08-22T20:45:00.490Z,99946.00
2018-08-22T20:47:28.155Z,99946.00
2018-08-22T20:49:56.361Z,99946.00
2018-08-22T20:52:25.833Z,99942.00
2018-08-22T20:54:59.645Z,99940.00
2018-08-22T20:57:27.300Z,99945.00
2018-08-22T20:59:54.993Z,99944.00
2018-08-22T21:02:22.780Z,99946.00
2018-08-22T21:04:50.411Z,99950.00
2018-08-22T21:07:28.285Z,99950.00
2018-08-22T21:09:55.969Z,99952.00
2018-08-22T21:12:23.563Z,99952.00
2018-08-22T21:14:51.779Z,99955.00
2018-08-22T21:17:19.339Z,99955.00
2018-08-22T21:19:46.917Z,99957.00
2018-08-22T21:22:26.334Z,99958.00
2018-08-22T21:24:55.340Z,99963.00
2018-08-22T21:27:22.914Z,99961.00
2018-08-22T21:29:50.976Z,99966.00
2018-08-22T21:32:18.692Z,99960.00
2018-08-22T21:34:46.426Z,99960.00
2018-08-22T21:37:23.624Z,99958.00
2018-08-22T21:39:51.458Z,99958.00
2018-08-22T21:42:36.081Z,99959.00
2018-08-22T21:45:03.773Z,99963.00
2018-08-22T21:47:31.453Z,99959.00
2018-08-22T21:49:59.078Z,99957.00
2018-08-22T21:52:36.188Z,99955.00
2018-08-22T21:55:04.183Z,99951.00
2018-08-22T21:57:31.741Z,99955.00
2018-08-22T22:00:08.453Z,99950.00
2018-08-22T22:02:42.071Z,99947.00
2018-08-22T22:05:09.986Z,99945.00
2018-08-22T22:07:37.519Z,99946.00
2018-08-22T22:10:10.285Z,99945.00
2018-08-22T22:12:39.290Z,99941.00
2018-08-22T22:15:07.671Z,99938.00
2018-08-22T22:17:35.560Z,99940.00
2018-08-22T22:20:03.194Z,99939.00
2018-08-22T22:22:30.985Z,99946.00
2018-08-22T22:25:02.854Z,99944.00
2018-08-22T22:27:31.554Z,99942.00
2018-08-22T22:30:03.504Z,99941.00
2018-08-22T22:32:32.214Z,99941.00
2018-08-22T22:35:01.532Z,99937.00
2018-08-22T22:37:32.473Z,99938.00
2018-08-22T22:40:00.087Z,99938.00
2018-08-22T22:42:28.460Z,99939.00
2018-08-22T22:44:57.386Z,99935.00
2018-08-22T22:47:25.893Z,99933.00
2018-08-22T22:49:54.108Z,99935.00
2018-08-22T22:52:34.514Z,99933.00
2018-08-22T22:55:03.547Z,99930.00
2018-08-22T22:57:33.099Z,99927.00
2018-08-22T23:00:01.419Z,99925.00
2018-08-22T23:02:29.749Z,99922.00
2018-08-22T23:04:59.636Z,99920.00
2018-08-22T23:07:29.001Z,99920.00
2018-08-22T23:09:57.910Z,99921.00
2018-08-22T23:12:31.254Z,99919.00
2018-08-22T23:14:59.219Z,99916.00
2018-08-22T23:17:26.972Z,99914.00
2018-08-22T23:20:24.687Z,99919.00
2018-08-22T23:22:52.610Z,99916.00
2018-08-22T23:25:20.470Z,99916.00
2018-08-22T23:27:48.134Z,99914.00
2018-08-22T23:30:17.064Z,99919.00
2018-08-22T23:32:44.651Z,99915.00
2018-08-22T23:35:23.402Z,99909.00
2018-08-22T23:37:54.103Z,99908.00
2018-08-22T23:40:23.045Z,99901.00
2018-08-22T23:42:57.516Z,99902.00
2018-08-22T23:45:25.139Z,99891.00
2018-08-22T23:48:22.084Z,99895.00
2018-08-22T23:51:16.445Z,99896.00
2018-08-22T23:53:45.392Z,99892.00
2018-08-22T23:56:51.706Z,99897.00
2018-08-22T23:59:57.150Z,99890.00
